<?xml version="1.0" encoding="UTF-8" standalone="no" ?><gpx xmlns="http://www.topografix.com/GPX/1/1" creator="Geosync GPX Converter" version="1.1" xmlns:xsi="http://www.w3.org/2001/XMLSchema-instance" xsi:schemaLocation="http://www.topografix.com/GPX/1/1 http://www.topografix.com/GPX/1/1/gpx.xsd"><metadata><link> href="http://www.oriem.com"></link><link> href="http://www.atech.hk"></link></metadata><trk><name>trk00000_2013-9-8</name><trkseg><trkpt lat="49.725600000" lon="11.910516667"><ele>428</ele><time>2013-09-08T12:04:02Z</time></trkpt><trkpt lat="49.725600000" lon="11.910633333"><ele>427</ele><time>2013-09-08T12:04:12Z</time></trkpt><trkpt lat="49.725600000" lon="11.910800000"><ele>426</ele><time>2013-09-08T12:04:22Z</time></trkpt><trkpt lat="49.725583333" lon="11.911016667"><ele>427</ele><time>2013-09-08T12:04:32Z</time></trkpt><trkpt lat="49.725566667" lon="11.911350000"><ele>436</ele><time>2013-09-08T12:04:42Z</time></trkpt><trkpt lat="49.725550000" lon="11.911550000"><ele>435</ele><time>2013-09-08T12:04:52Z</time></trkpt><trkpt lat="49.725550000" lon="11.911733333"><ele>435</ele><time>2013-09-08T12:05:02Z</time></trkpt><trkpt lat="49.725550000" lon="11.911950000"><ele>435</ele><time>2013-09-08T12:05:12Z</time></trkpt><trkpt lat="49.725516667" lon="11.912166667"><ele>435</ele><time>2013-09-08T12:05:22Z</time></trkpt><trkpt lat="49.725550000" lon="11.912333333"><ele>434</ele><time>2013-09-08T12:05:32Z</time></trkpt><trkpt lat="49.725550000" lon="11.912500000"><ele>434</ele><time>2013-09-08T12:05:42Z</time></trkpt><trkpt lat="49.725550000" lon="11.912716667"><ele>436</ele><time>2013-09-08T12:05:52Z</time></trkpt><trkpt lat="49.725550000" lon="11.912916667"><ele>437</ele><time>2013-09-08T12:06:02Z</time></trkpt><trkpt lat="49.725533333" lon="11.913116667"><ele>435</ele><time>2013-09-08T12:06:12Z</time></trkpt><trkpt lat="49.725516667" lon="11.913333333"><ele>437</ele><time>2013-09-08T12:06:22Z</time></trkpt><trkpt lat="49.725516667" lon="11.913533333"><ele>437</ele><time>2013-09-08T12:06:32Z</time></trkpt><trkpt lat="49.725500000" lon="11.913733333"><ele>436</ele><time>2013-09-08T12:06:42Z</time></trkpt><trkpt lat="49.725500000" lon="11.913900000"><ele>436</ele><time>2013-09-08T12:06:52Z</time></trkpt><trkpt lat="49.725516667" lon="11.914133333"><ele>437</ele><time>2013-09-08T12:07:02Z</time></trkpt><trkpt lat="49.725533333" lon="11.914316667"><ele>436</ele><time>2013-09-08T12:07:12Z</time></trkpt><trkpt lat="49.725550000" lon="11.914483333"><ele>435</ele><time>2013-09-08T12:07:22Z</time></trkpt><trkpt lat="49.725566667" lon="11.914733333"><ele>436</ele><time>2013-09-08T12:07:32Z</time></trkpt><trkpt lat="49.725500000" lon="11.914883333"><ele>436</ele><time>2013-09-08T12:07:42Z</time></trkpt><trkpt lat="49.725366667" lon="11.914916667"><ele>436</ele><time>2013-09-08T12:07:52Z</time></trkpt><trkpt lat="49.725250000" lon="11.914950000"><ele>436</ele><time>2013-09-08T12:08:02Z</time></trkpt><trkpt lat="49.725133333" lon="11.915033333"><ele>436</ele><time>2013-09-08T12:08:12Z</time></trkpt><trkpt lat="49.725016667" lon="11.915083333"><ele>434</ele><time>2013-09-08T12:08:22Z</time></trkpt><trkpt lat="49.724883333" lon="11.915200000"><ele>435</ele><time>2013-09-08T12:08:32Z</time></trkpt><trkpt lat="49.724766667" lon="11.915250000"><ele>439</ele><time>2013-09-08T12:08:42Z</time></trkpt><trkpt lat="49.724666667" lon="11.915283333"><ele>434</ele><time>2013-09-08T12:08:52Z</time></trkpt><trkpt lat="49.724550000" lon="11.915316667"><ele>435</ele><time>2013-09-08T12:09:02Z</time></trkpt><trkpt lat="49.724416667" lon="11.915333333"><ele>437</ele><time>2013-09-08T12:09:12Z</time></trkpt><trkpt lat="49.724300000" lon="11.915383333"><ele>438</ele><time>2013-09-08T12:09:22Z</time></trkpt><trkpt lat="49.724183333" lon="11.915450000"><ele>440</ele><time>2013-09-08T12:09:32Z</time></trkpt><trkpt lat="49.724066667" lon="11.915533333"><ele>440</ele><time>2013-09-08T12:09:42Z</time></trkpt><trkpt lat="49.723966667" lon="11.915650000"><ele>444</ele><time>2013-09-08T12:09:52Z</time></trkpt><trkpt lat="49.723833333" lon="11.915766667"><ele>448</ele><time>2013-09-08T12:10:02Z</time></trkpt><trkpt lat="49.723733333" lon="11.915833333"><ele>445</ele><time>2013-09-08T12:10:12Z</time></trkpt><trkpt lat="49.723716667" lon="11.916000000"><ele>446</ele><time>2013-09-08T12:10:22Z</time></trkpt><trkpt lat="49.723750000" lon="11.916200000"><ele>444</ele><time>2013-09-08T12:10:32Z</time></trkpt><trkpt lat="49.723816667" lon="11.916333333"><ele>446</ele><time>2013-09-08T12:10:42Z</time></trkpt><trkpt lat="49.723883333" lon="11.916550000"><ele>449</ele><time>2013-09-08T12:10:52Z</time></trkpt><trkpt lat="49.723933333" lon="11.916733333"><ele>449</ele><time>2013-09-08T12:11:02Z</time></trkpt><trkpt lat="49.724000000" lon="11.916933333"><ele>448</ele><time>2013-09-08T12:11:12Z</time></trkpt><trkpt lat="49.724033333" lon="11.917083333"><ele>448</ele><time>2013-09-08T12:11:22Z</time></trkpt><trkpt lat="49.724033333" lon="11.917250000"><ele>448</ele><time>2013-09-08T12:11:32Z</time></trkpt><trkpt lat="49.724066667" lon="11.917433333"><ele>445</ele><time>2013-09-08T12:11:42Z</time></trkpt><trkpt lat="49.724100000" lon="11.917600000"><ele>442</ele><time>2013-09-08T12:11:52Z</time></trkpt><trkpt lat="49.724166667" lon="11.917800000"><ele>442</ele><time>2013-09-08T12:12:02Z</time></trkpt><trkpt lat="49.724150000" lon="11.917950000"><ele>442</ele><time>2013-09-08T12:12:12Z</time></trkpt><trkpt lat="49.724116667" lon="11.918216667"><ele>443</ele><time>2013-09-08T12:12:22Z</time></trkpt><trkpt lat="49.724133333" lon="11.918366667"><ele>445</ele><time>2013-09-08T12:12:32Z</time></trkpt><trkpt lat="49.724150000" lon="11.918566667"><ele>445</ele><time>2013-09-08T12:12:42Z</time></trkpt><trkpt lat="49.724166667" lon="11.918750000"><ele>445</ele><time>2013-09-08T12:12:52Z</time></trkpt><trkpt lat="49.724150000" lon="11.918916667"><ele>443</ele><time>2013-09-08T12:13:02Z</time></trkpt><trkpt lat="49.724183333" lon="11.919150000"><ele>444</ele><time>2013-09-08T12:13:12Z</time></trkpt><trkpt lat="49.724216667" lon="11.919316667"><ele>445</ele><time>2013-09-08T12:13:22Z</time></trkpt><trkpt lat="49.724216667" lon="11.919500000"><ele>447</ele><time>2013-09-08T12:13:32Z</time></trkpt><trkpt lat="49.724166667" lon="11.919683333"><ele>449</ele><time>2013-09-08T12:13:42Z</time></trkpt><trkpt lat="49.724083333" lon="11.919866667"><ele>451</ele><time>2013-09-08T12:13:52Z</time></trkpt><trkpt lat="49.724050000" lon="11.920050000"><ele>452</ele><time>2013-09-08T12:14:02Z</time></trkpt><trkpt lat="49.723983333" lon="11.920200000"><ele>451</ele><time>2013-09-08T12:14:12Z</time></trkpt><trkpt lat="49.723983333" lon="11.920350000"><ele>450</ele><time>2013-09-08T12:14:22Z</time></trkpt><trkpt lat="49.723983333" lon="11.920566667"><ele>450</ele><time>2013-09-08T12:14:32Z</time></trkpt><trkpt lat="49.723966667" lon="11.920716667"><ele>451</ele><time>2013-09-08T12:14:42Z</time></trkpt><trkpt lat="49.724000000" lon="11.920850000"><ele>454</ele><time>2013-09-08T12:14:52Z</time></trkpt><trkpt lat="49.724000000" lon="11.921116667"><ele>456</ele><time>2013-09-08T12:15:02Z</time></trkpt><trkpt lat="49.723983333" lon="11.921350000"><ele>456</ele><time>2013-09-08T12:15:12Z</time></trkpt><trkpt lat="49.723966667" lon="11.921516667"><ele>458</ele><time>2013-09-08T12:15:22Z</time></trkpt><trkpt lat="49.723950000" lon="11.921716667"><ele>456</ele><time>2013-09-08T12:15:32Z</time></trkpt><trkpt lat="49.723916667" lon="11.921816667"><ele>456</ele><time>2013-09-08T12:15:42Z</time></trkpt><trkpt lat="49.723933333" lon="11.921950000"><ele>458</ele><time>2013-09-08T12:15:52Z</time></trkpt><trkpt lat="49.724000000" lon="11.922233333"><ele>460</ele><time>2013-09-08T12:16:02Z</time></trkpt><trkpt lat="49.723966667" lon="11.922416667"><ele>459</ele><time>2013-09-08T12:16:12Z</time></trkpt><trkpt lat="49.723966667" lon="11.922533333"><ele>457</ele><time>2013-09-08T12:16:22Z</time></trkpt><trkpt lat="49.724050000" lon="11.922766667"><ele>458</ele><time>2013-09-08T12:16:32Z</time></trkpt><trkpt lat="49.724050000" lon="11.922966667"><ele>457</ele><time>2013-09-08T12:16:42Z</time></trkpt><trkpt lat="49.724066667" lon="11.923150000"><ele>455</ele><time>2013-09-08T12:16:52Z</time></trkpt><trkpt lat="49.724050000" lon="11.923283333"><ele>455</ele><time>2013-09-08T12:17:02Z</time></trkpt><trkpt lat="49.724050000" lon="11.923500000"><ele>457</ele><time>2013-09-08T12:17:12Z</time></trkpt><trkpt lat="49.724033333" lon="11.923700000"><ele>458</ele><time>2013-09-08T12:17:22Z</time></trkpt><trkpt lat="49.724050000" lon="11.923950000"><ele>456</ele><time>2013-09-08T12:17:32Z</time></trkpt><trkpt lat="49.724000000" lon="11.924066667"><ele>457</ele><time>2013-09-08T12:17:42Z</time></trkpt><trkpt lat="49.724016667" lon="11.924216667"><ele>457</ele><time>2013-09-08T12:17:52Z</time></trkpt><trkpt lat="49.724000000" lon="11.924450000"><ele>457</ele><time>2013-09-08T12:18:02Z</time></trkpt><trkpt lat="49.724016667" lon="11.924700000"><ele>458</ele><time>2013-09-08T12:18:12Z</time></trkpt><trkpt lat="49.724000000" lon="11.924866667"><ele>457</ele><time>2013-09-08T12:18:22Z</time></trkpt><trkpt lat="49.724050000" lon="11.924966667"><ele>456</ele><time>2013-09-08T12:18:32Z</time></trkpt><trkpt lat="49.724116667" lon="11.925116667"><ele>455</ele><time>2013-09-08T12:18:42Z</time></trkpt><trkpt lat="49.724150000" lon="11.925300000"><ele>454</ele><time>2013-09-08T12:18:52Z</time></trkpt><trkpt lat="49.724216667" lon="11.925483333"><ele>454</ele><time>2013-09-08T12:19:02Z</time></trkpt><trkpt lat="49.724300000" lon="11.925616667"><ele>457</ele><time>2013-09-08T12:19:12Z</time></trkpt><trkpt lat="49.724333333" lon="11.925783333"><ele>458</ele><time>2013-09-08T12:19:22Z</time></trkpt><trkpt lat="49.724400000" lon="11.926000000"><ele>459</ele><time>2013-09-08T12:19:32Z</time></trkpt><trkpt lat="49.724500000" lon="11.926200000"><ele>464</ele><time>2013-09-08T12:19:42Z</time></trkpt><trkpt lat="49.724566667" lon="11.926366667"><ele>462</ele><time>2013-09-08T12:19:52Z</time></trkpt><trkpt lat="49.724616667" lon="11.926533333"><ele>463</ele><time>2013-09-08T12:20:02Z</time></trkpt><trkpt lat="49.724633333" lon="11.926683333"><ele>461</ele><time>2013-09-08T12:20:12Z</time></trkpt><trkpt lat="49.724733333" lon="11.926816667"><ele>460</ele><time>2013-09-08T12:20:22Z</time></trkpt><trkpt lat="49.724800000" lon="11.926983333"><ele>460</ele><time>2013-09-08T12:20:32Z</time></trkpt><trkpt lat="49.724850000" lon="11.927133333"><ele>460</ele><time>2013-09-08T12:20:42Z</time></trkpt><trkpt lat="49.724900000" lon="11.927283333"><ele>459</ele><time>2013-09-08T12:20:52Z</time></trkpt><trkpt lat="49.724950000" lon="11.927483333"><ele>459</ele><time>2013-09-08T12:21:02Z</time></trkpt><trkpt lat="49.725016667" lon="11.927616667"><ele>457</ele><time>2013-09-08T12:21:12Z</time></trkpt><trkpt lat="49.725083333" lon="11.927783333"><ele>456</ele><time>2013-09-08T12:21:22Z</time></trkpt><trkpt lat="49.725133333" lon="11.928000000"><ele>458</ele><time>2013-09-08T12:21:32Z</time></trkpt><trkpt lat="49.725200000" lon="11.928150000"><ele>457</ele><time>2013-09-08T12:21:42Z</time></trkpt><trkpt lat="49.725250000" lon="11.928300000"><ele>456</ele><time>2013-09-08T12:21:52Z</time></trkpt><trkpt lat="49.725350000" lon="11.928450000"><ele>457</ele><time>2013-09-08T12:22:02Z</time></trkpt><trkpt lat="49.725450000" lon="11.928600000"><ele>459</ele><time>2013-09-08T12:22:12Z</time></trkpt><trkpt lat="49.725483333" lon="11.928800000"><ele>460</ele><time>2013-09-08T12:22:22Z</time></trkpt><trkpt lat="49.725483333" lon="11.929033333"><ele>458</ele><time>2013-09-08T12:22:32Z</time></trkpt><trkpt lat="49.725533333" lon="11.929150000"><ele>457</ele><time>2013-09-08T12:22:42Z</time></trkpt><trkpt lat="49.725583333" lon="11.929250000"><ele>454</ele><time>2013-09-08T12:22:52Z</time></trkpt><trkpt lat="49.725716667" lon="11.929466667"><ele>458</ele><time>2013-09-08T12:23:02Z</time></trkpt><trkpt lat="49.725750000" lon="11.929666667"><ele>456</ele><time>2013-09-08T12:23:12Z</time></trkpt><trkpt lat="49.725883333" lon="11.929800000"><ele>456</ele><time>2013-09-08T12:23:22Z</time></trkpt><trkpt lat="49.725933333" lon="11.929966667"><ele>456</ele><time>2013-09-08T12:23:32Z</time></trkpt><trkpt lat="49.726016667" lon="11.930183333"><ele>457</ele><time>2013-09-08T12:23:42Z</time></trkpt><trkpt lat="49.726083333" lon="11.930316667"><ele>457</ele><time>2013-09-08T12:23:52Z</time></trkpt><trkpt lat="49.726133333" lon="11.930500000"><ele>455</ele><time>2013-09-08T12:24:02Z</time></trkpt><trkpt lat="49.726150000" lon="11.930733333"><ele>456</ele><time>2013-09-08T12:24:12Z</time></trkpt><trkpt lat="49.726250000" lon="11.930833333"><ele>454</ele><time>2013-09-08T12:24:22Z</time></trkpt><trkpt lat="49.726300000" lon="11.931016667"><ele>452</ele><time>2013-09-08T12:24:32Z</time></trkpt><trkpt lat="49.726300000" lon="11.931200000"><ele>451</ele><time>2013-09-08T12:24:42Z</time></trkpt><trkpt lat="49.726383333" lon="11.931383333"><ele>451</ele><time>2013-09-08T12:24:52Z</time></trkpt><trkpt lat="49.726450000" lon="11.931533333"><ele>451</ele><time>2013-09-08T12:25:02Z</time></trkpt><trkpt lat="49.726533333" lon="11.931650000"><ele>450</ele><time>2013-09-08T12:25:12Z</time></trkpt><trkpt lat="49.726616667" lon="11.931816667"><ele>452</ele><time>2013-09-08T12:25:22Z</time></trkpt><trkpt lat="49.726616667" lon="11.932033333"><ele>450</ele><time>2013-09-08T12:25:32Z</time></trkpt><trkpt lat="49.726650000" lon="11.932266667"><ele>450</ele><time>2013-09-08T12:25:42Z</time></trkpt><trkpt lat="49.726650000" lon="11.932483333"><ele>447</ele><time>2013-09-08T12:25:52Z</time></trkpt><trkpt lat="49.726716667" lon="11.932616667"><ele>448</ele><time>2013-09-08T12:26:02Z</time></trkpt><trkpt lat="49.726750000" lon="11.932750000"><ele>447</ele><time>2013-09-08T12:26:12Z</time></trkpt><trkpt lat="49.726766667" lon="11.932916667"><ele>447</ele><time>2013-09-08T12:26:22Z</time></trkpt><trkpt lat="49.726783333" lon="11.933083333"><ele>445</ele><time>2013-09-08T12:26:32Z</time></trkpt><trkpt lat="49.726816667" lon="11.933300000"><ele>446</ele><time>2013-09-08T12:26:42Z</time></trkpt><trkpt lat="49.726833333" lon="11.933450000"><ele>447</ele><time>2013-09-08T12:26:52Z</time></trkpt><trkpt lat="49.726833333" lon="11.933733333"><ele>446</ele><time>2013-09-08T12:27:02Z</time></trkpt><trkpt lat="49.726900000" lon="11.933900000"><ele>449</ele><time>2013-09-08T12:27:12Z</time></trkpt><trkpt lat="49.726883333" lon="11.934116667"><ele>452</ele><time>2013-09-08T12:27:22Z</time></trkpt><trkpt lat="49.726900000" lon="11.934250000"><ele>451</ele><time>2013-09-08T12:27:32Z</time></trkpt><trkpt lat="49.726916667" lon="11.934416667"><ele>448</ele><time>2013-09-08T12:27:42Z</time></trkpt><trkpt lat="49.726916667" lon="11.934600000"><ele>447</ele><time>2013-09-08T12:27:52Z</time></trkpt><trkpt lat="49.726966667" lon="11.934766667"><ele>447</ele><time>2013-09-08T12:28:02Z</time></trkpt><trkpt lat="49.726950000" lon="11.934966667"><ele>446</ele><time>2013-09-08T12:28:12Z</time></trkpt><trkpt lat="49.726950000" lon="11.935150000"><ele>446</ele><time>2013-09-08T12:28:22Z</time></trkpt><trkpt lat="49.726983333" lon="11.935333333"><ele>447</ele><time>2013-09-08T12:28:32Z</time></trkpt><trkpt lat="49.726966667" lon="11.935583333"><ele>447</ele><time>2013-09-08T12:28:42Z</time></trkpt><trkpt lat="49.727016667" lon="11.935783333"><ele>445</ele><time>2013-09-08T12:28:52Z</time></trkpt><trkpt lat="49.727033333" lon="11.935983333"><ele>446</ele><time>2013-09-08T12:29:02Z</time></trkpt><trkpt lat="49.727050000" lon="11.936183333"><ele>444</ele><time>2013-09-08T12:29:12Z</time></trkpt><trkpt lat="49.727083333" lon="11.936366667"><ele>445</ele><time>2013-09-08T12:29:22Z</time></trkpt><trkpt lat="49.727066667" lon="11.936566667"><ele>445</ele><time>2013-09-08T12:29:32Z</time></trkpt><trkpt lat="49.727066667" lon="11.936783333"><ele>445</ele><time>2013-09-08T12:29:42Z</time></trkpt><trkpt lat="49.727150000" lon="11.936983333"><ele>446</ele><time>2013-09-08T12:29:52Z</time></trkpt><trkpt lat="49.727166667" lon="11.937166667"><ele>446</ele><time>2013-09-08T12:30:02Z</time></trkpt><trkpt lat="49.727133333" lon="11.937350000"><ele>447</ele><time>2013-09-08T12:30:12Z</time></trkpt><trkpt lat="49.727200000" lon="11.937550000"><ele>447</ele><time>2013-09-08T12:30:22Z</time></trkpt><trkpt lat="49.727266667" lon="11.937766667"><ele>451</ele><time>2013-09-08T12:30:32Z</time></trkpt><trkpt lat="49.727216667" lon="11.938000000"><ele>448</ele><time>2013-09-08T12:30:42Z</time></trkpt><trkpt lat="49.727250000" lon="11.938150000"><ele>445</ele><time>2013-09-08T12:30:52Z</time></trkpt><trkpt lat="49.727233333" lon="11.938416667"><ele>445</ele><time>2013-09-08T12:31:02Z</time></trkpt><trkpt lat="49.727266667" lon="11.938550000"><ele>447</ele><time>2013-09-08T12:31:12Z</time></trkpt><trkpt lat="49.727233333" lon="11.938766667"><ele>445</ele><time>2013-09-08T12:31:22Z</time></trkpt><trkpt lat="49.727233333" lon="11.938966667"><ele>443</ele><time>2013-09-08T12:31:32Z</time></trkpt><trkpt lat="49.727233333" lon="11.939200000"><ele>443</ele><time>2013-09-08T12:31:42Z</time></trkpt><trkpt lat="49.727233333" lon="11.939366667"><ele>445</ele><time>2013-09-08T12:31:52Z</time></trkpt><trkpt lat="49.727216667" lon="11.939666667"><ele>447</ele><time>2013-09-08T12:32:02Z</time></trkpt><trkpt lat="49.727200000" lon="11.939800000"><ele>441</ele><time>2013-09-08T12:32:12Z</time></trkpt><trkpt lat="49.727233333" lon="11.940000000"><ele>442</ele><time>2013-09-08T12:32:22Z</time></trkpt><trkpt lat="49.727200000" lon="11.940166667"><ele>441</ele><time>2013-09-08T12:32:32Z</time></trkpt><trkpt lat="49.727166667" lon="11.940300000"><ele>441</ele><time>2013-09-08T12:32:42Z</time></trkpt><trkpt lat="49.727183333" lon="11.940483333"><ele>441</ele><time>2013-09-08T12:32:52Z</time></trkpt><trkpt lat="49.727233333" lon="11.940666667"><ele>445</ele><time>2013-09-08T12:33:02Z</time></trkpt><trkpt lat="49.727233333" lon="11.940866667"><ele>446</ele><time>2013-09-08T12:33:12Z</time></trkpt><trkpt lat="49.727266667" lon="11.941083333"><ele>443</ele><time>2013-09-08T12:33:22Z</time></trkpt><trkpt lat="49.727233333" lon="11.941266667"><ele>444</ele><time>2013-09-08T12:33:32Z</time></trkpt><trkpt lat="49.727166667" lon="11.941450000"><ele>439</ele><time>2013-09-08T12:33:42Z</time></trkpt><trkpt lat="49.727133333" lon="11.941633333"><ele>437</ele><time>2013-09-08T12:33:52Z</time></trkpt><trkpt lat="49.727116667" lon="11.941850000"><ele>435</ele><time>2013-09-08T12:34:02Z</time></trkpt><trkpt lat="49.727150000" lon="11.942016667"><ele>436</ele><time>2013-09-08T12:34:12Z</time></trkpt><trkpt lat="49.727183333" lon="11.942216667"><ele>437</ele><time>2013-09-08T12:34:22Z</time></trkpt><trkpt lat="49.727216667" lon="11.942366667"><ele>440</ele><time>2013-09-08T12:34:32Z</time></trkpt><trkpt lat="49.727166667" lon="11.942583333"><ele>440</ele><time>2013-09-08T12:34:42Z</time></trkpt><trkpt lat="49.727200000" lon="11.942766667"><ele>439</ele><time>2013-09-08T12:34:52Z</time></trkpt><trkpt lat="49.727150000" lon="11.942900000"><ele>440</ele><time>2013-09-08T12:35:02Z</time></trkpt><trkpt lat="49.727150000" lon="11.943133333"><ele>438</ele><time>2013-09-08T12:35:12Z</time></trkpt><trkpt lat="49.727150000" lon="11.943300000"><ele>439</ele><time>2013-09-08T12:35:22Z</time></trkpt><trkpt lat="49.727166667" lon="11.943516667"><ele>436</ele><time>2013-09-08T12:35:32Z</time></trkpt><trkpt lat="49.727150000" lon="11.943716667"><ele>436</ele><time>2013-09-08T12:35:42Z</time></trkpt><trkpt lat="49.727133333" lon="11.943900000"><ele>434</ele><time>2013-09-08T12:35:52Z</time></trkpt><trkpt lat="49.727150000" lon="11.944050000"><ele>434</ele><time>2013-09-08T12:36:02Z</time></trkpt><trkpt lat="49.727166667" lon="11.944250000"><ele>433</ele><time>2013-09-08T12:36:12Z</time></trkpt><trkpt lat="49.727166667" lon="11.944116667"><ele>435</ele><time>2013-09-08T12:36:22Z</time></trkpt><trkpt lat="49.727283333" lon="11.943966667"><ele>435</ele><time>2013-09-08T12:36:32Z</time></trkpt><trkpt lat="49.727450000" lon="11.944033333"><ele>433</ele><time>2013-09-08T12:36:42Z</time></trkpt><trkpt lat="49.727600000" lon="11.943983333"><ele>435</ele><time>2013-09-08T12:36:52Z</time></trkpt><trkpt lat="49.727700000" lon="11.943900000"><ele>433</ele><time>2013-09-08T12:37:02Z</time></trkpt><trkpt lat="49.727816667" lon="11.943833333"><ele>437</ele><time>2013-09-08T12:37:12Z</time></trkpt><trkpt lat="49.727933333" lon="11.943816667"><ele>435</ele><time>2013-09-08T12:37:22Z</time></trkpt><trkpt lat="49.728066667" lon="11.943833333"><ele>436</ele><time>2013-09-08T12:37:32Z</time></trkpt><trkpt lat="49.728200000" lon="11.943766667"><ele>439</ele><time>2013-09-08T12:37:42Z</time></trkpt><trkpt lat="49.728316667" lon="11.943716667"><ele>442</ele><time>2013-09-08T12:37:52Z</time></trkpt><trkpt lat="49.728450000" lon="11.943700000"><ele>442</ele><time>2013-09-08T12:38:02Z</time></trkpt><trkpt lat="49.728600000" lon="11.943716667"><ele>445</ele><time>2013-09-08T12:38:12Z</time></trkpt><trkpt lat="49.728716667" lon="11.943666667"><ele>443</ele><time>2013-09-08T12:38:22Z</time></trkpt><trkpt lat="49.728850000" lon="11.943700000"><ele>443</ele><time>2013-09-08T12:38:32Z</time></trkpt><trkpt lat="49.728983333" lon="11.943683333"><ele>443</ele><time>2013-09-08T12:38:42Z</time></trkpt><trkpt lat="49.729100000" lon="11.943700000"><ele>441</ele><time>2013-09-08T12:38:52Z</time></trkpt><trkpt lat="49.729233333" lon="11.943666667"><ele>440</ele><time>2013-09-08T12:39:02Z</time></trkpt><trkpt lat="49.729350000" lon="11.943666667"><ele>438</ele><time>2013-09-08T12:39:12Z</time></trkpt><trkpt lat="49.729466667" lon="11.943666667"><ele>436</ele><time>2013-09-08T12:39:22Z</time></trkpt><trkpt lat="49.729583333" lon="11.943683333"><ele>433</ele><time>2013-09-08T12:39:32Z</time></trkpt><trkpt lat="49.729683333" lon="11.943633333"><ele>435</ele><time>2013-09-08T12:39:42Z</time></trkpt><trkpt lat="49.729800000" lon="11.943583333"><ele>438</ele><time>2013-09-08T12:39:52Z</time></trkpt><trkpt lat="49.729916667" lon="11.943516667"><ele>440</ele><time>2013-09-08T12:40:02Z</time></trkpt><trkpt lat="49.730033333" lon="11.943483333"><ele>440</ele><time>2013-09-08T12:40:12Z</time></trkpt><trkpt lat="49.730150000" lon="11.943450000"><ele>441</ele><time>2013-09-08T12:40:22Z</time></trkpt><trkpt lat="49.730250000" lon="11.943383333"><ele>443</ele><time>2013-09-08T12:40:32Z</time></trkpt><trkpt lat="49.730400000" lon="11.943400000"><ele>434</ele><time>2013-09-08T12:40:42Z</time></trkpt><trkpt lat="49.730516667" lon="11.943366667"><ele>434</ele><time>2013-09-08T12:40:52Z</time></trkpt><trkpt lat="49.730666667" lon="11.943333333"><ele>442</ele><time>2013-09-08T12:41:02Z</time></trkpt><trkpt lat="49.730783333" lon="11.943266667"><ele>442</ele><time>2013-09-08T12:41:12Z</time></trkpt><trkpt lat="49.730916667" lon="11.943283333"><ele>440</ele><time>2013-09-08T12:41:22Z</time></trkpt><trkpt lat="49.731033333" lon="11.943233333"><ele>439</ele><time>2013-09-08T12:41:32Z</time></trkpt><trkpt lat="49.731150000" lon="11.943183333"><ele>446</ele><time>2013-09-08T12:41:42Z</time></trkpt><trkpt lat="49.731266667" lon="11.943083333"><ele>448</ele><time>2013-09-08T12:41:52Z</time></trkpt><trkpt lat="49.731366667" lon="11.943016667"><ele>448</ele><time>2013-09-08T12:42:02Z</time></trkpt><trkpt lat="49.731500000" lon="11.942950000"><ele>447</ele><time>2013-09-08T12:42:12Z</time></trkpt><trkpt lat="49.731616667" lon="11.942866667"><ele>443</ele><time>2013-09-08T12:42:22Z</time></trkpt><trkpt lat="49.731750000" lon="11.942850000"><ele>445</ele><time>2013-09-08T12:42:32Z</time></trkpt><trkpt lat="49.731900000" lon="11.942883333"><ele>447</ele><time>2013-09-08T12:42:42Z</time></trkpt><trkpt lat="49.732050000" lon="11.942866667"><ele>449</ele><time>2013-09-08T12:42:52Z</time></trkpt><trkpt lat="49.732233333" lon="11.942916667"><ele>448</ele><time>2013-09-08T12:43:02Z</time></trkpt><trkpt lat="49.732266667" lon="11.942800000"><ele>443</ele><time>2013-09-08T12:43:12Z</time></trkpt><trkpt lat="49.732450000" lon="11.942816667"><ele>445</ele><time>2013-09-08T12:43:22Z</time></trkpt><trkpt lat="49.732566667" lon="11.942750000"><ele>446</ele><time>2013-09-08T12:43:32Z</time></trkpt><trkpt lat="49.732666667" lon="11.942683333"><ele>448</ele><time>2013-09-08T12:43:42Z</time></trkpt><trkpt lat="49.732816667" lon="11.942666667"><ele>452</ele><time>2013-09-08T12:43:52Z</time></trkpt><trkpt lat="49.732916667" lon="11.942566667"><ele>452</ele><time>2013-09-08T12:44:02Z</time></trkpt><trkpt lat="49.733033333" lon="11.942500000"><ele>451</ele><time>2013-09-08T12:44:12Z</time></trkpt><trkpt lat="49.733250000" lon="11.942550000"><ele>451</ele><time>2013-09-08T12:44:22Z</time></trkpt><trkpt lat="49.733400000" lon="11.942516667"><ele>449</ele><time>2013-09-08T12:44:32Z</time></trkpt><trkpt lat="49.733483333" lon="11.942500000"><ele>452</ele><time>2013-09-08T12:44:42Z</time></trkpt><trkpt lat="49.733583333" lon="11.942450000"><ele>452</ele><time>2013-09-08T12:44:52Z</time></trkpt><trkpt lat="49.733733333" lon="11.942450000"><ele>454</ele><time>2013-09-08T12:45:02Z</time></trkpt><trkpt lat="49.733900000" lon="11.942483333"><ele>453</ele><time>2013-09-08T12:45:12Z</time></trkpt><trkpt lat="49.734000000" lon="11.942400000"><ele>451</ele><time>2013-09-08T12:45:22Z</time></trkpt><trkpt lat="49.734116667" lon="11.942366667"><ele>452</ele><time>2013-09-08T12:45:32Z</time></trkpt><trkpt lat="49.734250000" lon="11.942266667"><ele>449</ele><time>2013-09-08T12:45:42Z</time></trkpt><trkpt lat="49.734366667" lon="11.942233333"><ele>448</ele><time>2013-09-08T12:45:52Z</time></trkpt><trkpt lat="49.734533333" lon="11.942233333"><ele>449</ele><time>2013-09-08T12:46:02Z</time></trkpt><trkpt lat="49.734666667" lon="11.942200000"><ele>450</ele><time>2013-09-08T12:46:12Z</time></trkpt><trkpt lat="49.734766667" lon="11.942116667"><ele>444</ele><time>2013-09-08T12:46:22Z</time></trkpt><trkpt lat="49.734933333" lon="11.942233333"><ele>440</ele><time>2013-09-08T12:46:32Z</time></trkpt><trkpt lat="49.734983333" lon="11.942183333"><ele>430</ele><time>2013-09-08T12:46:42Z</time></trkpt><trkpt lat="49.735066667" lon="11.942166667"><ele>430</ele><time>2013-09-08T12:46:52Z</time></trkpt><trkpt lat="49.735083333" lon="11.942050000"><ele>437</ele><time>2013-09-08T12:47:02Z</time></trkpt><trkpt lat="49.735233333" lon="11.942050000"><ele>436</ele><time>2013-09-08T12:47:12Z</time></trkpt><trkpt lat="49.735383333" lon="11.942066667"><ele>435</ele><time>2013-09-08T12:47:22Z</time></trkpt><trkpt lat="49.735533333" lon="11.942100000"><ele>438</ele><time>2013-09-08T12:47:32Z</time></trkpt><trkpt lat="49.735633333" lon="11.942050000"><ele>436</ele><time>2013-09-08T12:47:42Z</time></trkpt><trkpt lat="49.735733333" lon="11.942000000"><ele>438</ele><time>2013-09-08T12:47:52Z</time></trkpt><trkpt lat="49.735866667" lon="11.942000000"><ele>437</ele><time>2013-09-08T12:48:02Z</time></trkpt><trkpt lat="49.735983333" lon="11.941950000"><ele>438</ele><time>2013-09-08T12:48:12Z</time></trkpt><trkpt lat="49.736133333" lon="11.941933333"><ele>442</ele><time>2013-09-08T12:48:22Z</time></trkpt><trkpt lat="49.736250000" lon="11.941933333"><ele>438</ele><time>2013-09-08T12:48:32Z</time></trkpt><trkpt lat="49.736383333" lon="11.941850000"><ele>442</ele><time>2013-09-08T12:48:42Z</time></trkpt><trkpt lat="49.736483333" lon="11.941816667"><ele>441</ele><time>2013-09-08T12:48:52Z</time></trkpt><trkpt lat="49.736600000" lon="11.941816667"><ele>441</ele><time>2013-09-08T12:49:02Z</time></trkpt><trkpt lat="49.736733333" lon="11.941816667"><ele>439</ele><time>2013-09-08T12:49:12Z</time></trkpt><trkpt lat="49.736866667" lon="11.941833333"><ele>438</ele><time>2013-09-08T12:49:22Z</time></trkpt><trkpt lat="49.736966667" lon="11.941850000"><ele>437</ele><time>2013-09-08T12:49:32Z</time></trkpt><trkpt lat="49.737100000" lon="11.941833333"><ele>434</ele><time>2013-09-08T12:49:42Z</time></trkpt><trkpt lat="49.737250000" lon="11.941850000"><ele>436</ele><time>2013-09-08T12:49:52Z</time></trkpt><trkpt lat="49.737366667" lon="11.941833333"><ele>434</ele><time>2013-09-08T12:50:02Z</time></trkpt><trkpt lat="49.737500000" lon="11.941833333"><ele>434</ele><time>2013-09-08T12:50:12Z</time></trkpt><trkpt lat="49.737666667" lon="11.941800000"><ele>436</ele><time>2013-09-08T12:50:22Z</time></trkpt><trkpt lat="49.737783333" lon="11.941733333"><ele>442</ele><time>2013-09-08T12:50:32Z</time></trkpt><trkpt lat="49.737916667" lon="11.941683333"><ele>442</ele><time>2013-09-08T12:50:42Z</time></trkpt><trkpt lat="49.738066667" lon="11.941683333"><ele>444</ele><time>2013-09-08T12:50:52Z</time></trkpt><trkpt lat="49.738183333" lon="11.941650000"><ele>444</ele><time>2013-09-08T12:51:02Z</time></trkpt><trkpt lat="49.738316667" lon="11.941616667"><ele>444</ele><time>2013-09-08T12:51:12Z</time></trkpt><trkpt lat="49.738466667" lon="11.941550000"><ele>445</ele><time>2013-09-08T12:51:22Z</time></trkpt><trkpt lat="49.738616667" lon="11.941533333"><ele>445</ele><time>2013-09-08T12:51:32Z</time></trkpt><trkpt lat="49.738700000" lon="11.941366667"><ele>443</ele><time>2013-09-08T12:51:42Z</time></trkpt><trkpt lat="49.738850000" lon="11.941366667"><ele>443</ele><time>2013-09-08T12:51:52Z</time></trkpt><trkpt lat="49.738966667" lon="11.941333333"><ele>443</ele><time>2013-09-08T12:52:02Z</time></trkpt><trkpt lat="49.739100000" lon="11.941266667"><ele>449</ele><time>2013-09-08T12:52:12Z</time></trkpt><trkpt lat="49.739266667" lon="11.941266667"><ele>447</ele><time>2013-09-08T12:52:22Z</time></trkpt><trkpt lat="49.739400000" lon="11.941266667"><ele>442</ele><time>2013-09-08T12:52:32Z</time></trkpt><trkpt lat="49.739483333" lon="11.941250000"><ele>441</ele><time>2013-09-08T12:52:42Z</time></trkpt><trkpt lat="49.739616667" lon="11.941233333"><ele>444</ele><time>2013-09-08T12:52:52Z</time></trkpt><trkpt lat="49.739733333" lon="11.941250000"><ele>451</ele><time>2013-09-08T12:53:02Z</time></trkpt><trkpt lat="49.739916667" lon="11.941283333"><ele>450</ele><time>2013-09-08T12:53:12Z</time></trkpt><trkpt lat="49.740066667" lon="11.941383333"><ele>441</ele><time>2013-09-08T12:53:22Z</time></trkpt><trkpt lat="49.740216667" lon="11.941416667"><ele>438</ele><time>2013-09-08T12:53:32Z</time></trkpt><trkpt lat="49.740300000" lon="11.941416667"><ele>434</ele><time>2013-09-08T12:53:42Z</time></trkpt><trkpt lat="49.740416667" lon="11.941383333"><ele>432</ele><time>2013-09-08T12:53:52Z</time></trkpt><trkpt lat="49.740516667" lon="11.941366667"><ele>430</ele><time>2013-09-08T12:54:02Z</time></trkpt><trkpt lat="49.740683333" lon="11.941333333"><ele>435</ele><time>2013-09-08T12:54:12Z</time></trkpt><trkpt lat="49.740833333" lon="11.941266667"><ele>440</ele><time>2013-09-08T12:54:22Z</time></trkpt><trkpt lat="49.740966667" lon="11.941233333"><ele>441</ele><time>2013-09-08T12:54:32Z</time></trkpt><trkpt lat="49.741066667" lon="11.941150000"><ele>437</ele><time>2013-09-08T12:54:42Z</time></trkpt><trkpt lat="49.741200000" lon="11.941133333"><ele>431</ele><time>2013-09-08T12:54:52Z</time></trkpt><trkpt lat="49.741333333" lon="11.941050000"><ele>436</ele><time>2013-09-08T12:55:02Z</time></trkpt><trkpt lat="49.741450000" lon="11.941016667"><ele>436</ele><time>2013-09-08T12:55:12Z</time></trkpt><trkpt lat="49.741566667" lon="11.940916667"><ele>436</ele><time>2013-09-08T12:55:22Z</time></trkpt><trkpt lat="49.741666667" lon="11.940866667"><ele>437</ele><time>2013-09-08T12:55:32Z</time></trkpt><trkpt lat="49.741766667" lon="11.940783333"><ele>433</ele><time>2013-09-08T12:55:42Z</time></trkpt><trkpt lat="49.741916667" lon="11.940716667"><ele>435</ele><time>2013-09-08T12:55:52Z</time></trkpt><trkpt lat="49.742050000" lon="11.940600000"><ele>435</ele><time>2013-09-08T12:56:02Z</time></trkpt><trkpt lat="49.742133333" lon="11.940500000"><ele>435</ele><time>2013-09-08T12:56:12Z</time></trkpt><trkpt lat="49.742250000" lon="11.940400000"><ele>432</ele><time>2013-09-08T12:56:22Z</time></trkpt><trkpt lat="49.742366667" lon="11.940250000"><ele>436</ele><time>2013-09-08T12:56:32Z</time></trkpt><trkpt lat="49.742466667" lon="11.940183333"><ele>439</ele><time>2013-09-08T12:56:42Z</time></trkpt><trkpt lat="49.742650000" lon="11.940116667"><ele>444</ele><time>2013-09-08T12:56:52Z</time></trkpt><trkpt lat="49.742750000" lon="11.939983333"><ele>447</ele><time>2013-09-08T12:57:02Z</time></trkpt><trkpt lat="49.742850000" lon="11.939916667"><ele>446</ele><time>2013-09-08T12:57:12Z</time></trkpt><trkpt lat="49.743016667" lon="11.939866667"><ele>444</ele><time>2013-09-08T12:57:22Z</time></trkpt><trkpt lat="49.743150000" lon="11.939783333"><ele>441</ele><time>2013-09-08T12:57:32Z</time></trkpt><trkpt lat="49.743200000" lon="11.939733333"><ele>439</ele><time>2013-09-08T12:57:42Z</time></trkpt><trkpt lat="49.743350000" lon="11.939733333"><ele>439</ele><time>2013-09-08T12:57:52Z</time></trkpt><trkpt lat="49.743500000" lon="11.939633333"><ele>445</ele><time>2013-09-08T12:58:02Z</time></trkpt><trkpt lat="49.743633333" lon="11.939566667"><ele>441</ele><time>2013-09-08T12:58:12Z</time></trkpt><trkpt lat="49.743750000" lon="11.939466667"><ele>440</ele><time>2013-09-08T12:58:22Z</time></trkpt><trkpt lat="49.743866667" lon="11.939450000"><ele>444</ele><time>2013-09-08T12:58:32Z</time></trkpt><trkpt lat="49.743983333" lon="11.939350000"><ele>442</ele><time>2013-09-08T12:58:42Z</time></trkpt><trkpt lat="49.744083333" lon="11.939216667"><ele>445</ele><time>2013-09-08T12:58:52Z</time></trkpt><trkpt lat="49.744183333" lon="11.939050000"><ele>448</ele><time>2013-09-08T12:59:02Z</time></trkpt><trkpt lat="49.744350000" lon="11.939000000"><ele>450</ele><time>2013-09-08T12:59:12Z</time></trkpt><trkpt lat="49.744516667" lon="11.938950000"><ele>451</ele><time>2013-09-08T12:59:22Z</time></trkpt><trkpt lat="49.744566667" lon="11.938866667"><ele>449</ele><time>2013-09-08T12:59:32Z</time></trkpt><trkpt lat="49.744716667" lon="11.938833333"><ele>457</ele><time>2013-09-08T12:59:42Z</time></trkpt><trkpt lat="49.744883333" lon="11.938783333"><ele>456</ele><time>2013-09-08T12:59:52Z</time></trkpt><trkpt lat="49.744950000" lon="11.938700000"><ele>458</ele><time>2013-09-08T13:00:02Z</time></trkpt><trkpt lat="49.744983333" lon="11.938566667"><ele>457</ele><time>2013-09-08T13:00:12Z</time></trkpt><trkpt lat="49.745116667" lon="11.938516667"><ele>451</ele><time>2013-09-08T13:00:22Z</time></trkpt><trkpt lat="49.745200000" lon="11.938450000"><ele>453</ele><time>2013-09-08T13:00:32Z</time></trkpt><trkpt lat="49.745333333" lon="11.938383333"><ele>453</ele><time>2013-09-08T13:00:42Z</time></trkpt><trkpt lat="49.745450000" lon="11.938216667"><ele>461</ele><time>2013-09-08T13:00:52Z</time></trkpt><trkpt lat="49.745583333" lon="11.938150000"><ele>458</ele><time>2013-09-08T13:01:02Z</time></trkpt><trkpt lat="49.745683333" lon="11.938066667"><ele>454</ele><time>2013-09-08T13:01:12Z</time></trkpt><trkpt lat="49.745783333" lon="11.937966667"><ele>451</ele><time>2013-09-08T13:01:22Z</time></trkpt><trkpt lat="49.745883333" lon="11.937950000"><ele>450</ele><time>2013-09-08T13:01:32Z</time></trkpt><trkpt lat="49.745983333" lon="11.938000000"><ele>449</ele><time>2013-09-08T13:01:42Z</time></trkpt><trkpt lat="49.746116667" lon="11.937983333"><ele>440</ele><time>2013-09-08T13:01:52Z</time></trkpt><trkpt lat="49.746250000" lon="11.937916667"><ele>449</ele><time>2013-09-08T13:02:02Z</time></trkpt><trkpt lat="49.746333333" lon="11.937683333"><ele>445</ele><time>2013-09-08T13:02:12Z</time></trkpt><trkpt lat="49.746466667" lon="11.937600000"><ele>449</ele><time>2013-09-08T13:02:22Z</time></trkpt><trkpt lat="49.746583333" lon="11.937600000"><ele>450</ele><time>2013-09-08T13:02:32Z</time></trkpt><trkpt lat="49.746700000" lon="11.937483333"><ele>452</ele><time>2013-09-08T13:02:42Z</time></trkpt><trkpt lat="49.746783333" lon="11.937416667"><ele>455</ele><time>2013-09-08T13:02:52Z</time></trkpt><trkpt lat="49.746916667" lon="11.937366667"><ele>454</ele><time>2013-09-08T13:03:02Z</time></trkpt><trkpt lat="49.747050000" lon="11.937366667"><ele>453</ele><time>2013-09-08T13:03:12Z</time></trkpt><trkpt lat="49.747150000" lon="11.937316667"><ele>452</ele><time>2013-09-08T13:03:22Z</time></trkpt><trkpt lat="49.747316667" lon="11.937433333"><ele>453</ele><time>2013-09-08T13:03:32Z</time></trkpt><trkpt lat="49.747400000" lon="11.937433333"><ele>452</ele><time>2013-09-08T13:03:42Z</time></trkpt><trkpt lat="49.747500000" lon="11.937466667"><ele>453</ele><time>2013-09-08T13:03:52Z</time></trkpt><trkpt lat="49.747650000" lon="11.937483333"><ele>455</ele><time>2013-09-08T13:04:02Z</time></trkpt><trkpt lat="49.747783333" lon="11.937483333"><ele>451</ele><time>2013-09-08T13:04:12Z</time></trkpt><trkpt lat="49.747866667" lon="11.937516667"><ele>449</ele><time>2013-09-08T13:04:22Z</time></trkpt><trkpt lat="49.747983333" lon="11.937583333"><ele>449</ele><time>2013-09-08T13:04:32Z</time></trkpt><trkpt lat="49.748100000" lon="11.937583333"><ele>447</ele><time>2013-09-08T13:04:42Z</time></trkpt><trkpt lat="49.748233333" lon="11.937683333"><ele>446</ele><time>2013-09-08T13:04:52Z</time></trkpt><trkpt lat="49.748383333" lon="11.937666667"><ele>442</ele><time>2013-09-08T13:05:02Z</time></trkpt><trkpt lat="49.748383333" lon="11.937800000"><ele>446</ele><time>2013-09-08T13:05:12Z</time></trkpt><trkpt lat="49.748500000" lon="11.937883333"><ele>451</ele><time>2013-09-08T13:05:22Z</time></trkpt><trkpt lat="49.748600000" lon="11.937900000"><ele>440</ele><time>2013-09-08T13:05:32Z</time></trkpt><trkpt lat="49.748683333" lon="11.937900000"><ele>444</ele><time>2013-09-08T13:05:42Z</time></trkpt><trkpt lat="49.748800000" lon="11.937816667"><ele>454</ele><time>2013-09-08T13:05:52Z</time></trkpt><trkpt lat="49.748933333" lon="11.937816667"><ele>452</ele><time>2013-09-08T13:06:02Z</time></trkpt><trkpt lat="49.749033333" lon="11.937833333"><ele>453</ele><time>2013-09-08T13:06:12Z</time></trkpt><trkpt lat="49.749166667" lon="11.937883333"><ele>452</ele><time>2013-09-08T13:06:22Z</time></trkpt><trkpt lat="49.749300000" lon="11.937966667"><ele>452</ele><time>2013-09-08T13:06:32Z</time></trkpt><trkpt lat="49.749416667" lon="11.938000000"><ele>452</ele><time>2013-09-08T13:06:42Z</time></trkpt><trkpt lat="49.749550000" lon="11.938000000"><ele>451</ele><time>2013-09-08T13:06:52Z</time></trkpt><trkpt lat="49.749700000" lon="11.938050000"><ele>451</ele><time>2013-09-08T13:07:02Z</time></trkpt><trkpt lat="49.749850000" lon="11.938100000"><ele>451</ele><time>2013-09-08T13:07:12Z</time></trkpt><trkpt lat="49.750000000" lon="11.938116667"><ele>451</ele><time>2013-09-08T13:07:22Z</time></trkpt><trkpt lat="49.750133333" lon="11.938250000"><ele>447</ele><time>2013-09-08T13:07:32Z</time></trkpt><trkpt lat="49.750266667" lon="11.938366667"><ele>445</ele><time>2013-09-08T13:07:42Z</time></trkpt><trkpt lat="49.750300000" lon="11.938450000"><ele>445</ele><time>2013-09-08T13:07:52Z</time></trkpt><trkpt lat="49.750466667" lon="11.938466667"><ele>445</ele><time>2013-09-08T13:08:02Z</time></trkpt><trkpt lat="49.750600000" lon="11.938583333"><ele>439</ele><time>2013-09-08T13:08:12Z</time></trkpt><trkpt lat="49.750700000" lon="11.938666667"><ele>428</ele><time>2013-09-08T13:08:22Z</time></trkpt><trkpt lat="49.750816667" lon="11.938766667"><ele>425</ele><time>2013-09-08T13:08:32Z</time></trkpt><trkpt lat="49.750933333" lon="11.938850000"><ele>431</ele><time>2013-09-08T13:08:42Z</time></trkpt><trkpt lat="49.751083333" lon="11.938883333"><ele>435</ele><time>2013-09-08T13:08:52Z</time></trkpt><trkpt lat="49.751216667" lon="11.938916667"><ele>435</ele><time>2013-09-08T13:09:02Z</time></trkpt><trkpt lat="49.751316667" lon="11.938933333"><ele>435</ele><time>2013-09-08T13:09:12Z</time></trkpt><trkpt lat="49.751466667" lon="11.938950000"><ele>434</ele><time>2013-09-08T13:09:22Z</time></trkpt><trkpt lat="49.751616667" lon="11.938983333"><ele>434</ele><time>2013-09-08T13:09:32Z</time></trkpt><trkpt lat="49.751716667" lon="11.939016667"><ele>436</ele><time>2013-09-08T13:09:42Z</time></trkpt><trkpt lat="49.751866667" lon="11.939033333"><ele>433</ele><time>2013-09-08T13:09:52Z</time></trkpt><trkpt lat="49.751983333" lon="11.939050000"><ele>433</ele><time>2013-09-08T13:10:02Z</time></trkpt><trkpt lat="49.752116667" lon="11.939050000"><ele>433</ele><time>2013-09-08T13:10:12Z</time></trkpt><trkpt lat="49.752250000" lon="11.939033333"><ele>432</ele><time>2013-09-08T13:10:22Z</time></trkpt><trkpt lat="49.752366667" lon="11.938983333"><ele>432</ele><time>2013-09-08T13:10:32Z</time></trkpt><trkpt lat="49.752483333" lon="11.938950000"><ele>431</ele><time>2013-09-08T13:10:42Z</time></trkpt><trkpt lat="49.752600000" lon="11.938900000"><ele>431</ele><time>2013-09-08T13:10:52Z</time></trkpt><trkpt lat="49.752733333" lon="11.938883333"><ele>431</ele><time>2013-09-08T13:11:02Z</time></trkpt><trkpt lat="49.752866667" lon="11.938850000"><ele>432</ele><time>2013-09-08T13:11:12Z</time></trkpt><trkpt lat="49.752983333" lon="11.938816667"><ele>432</ele><time>2013-09-08T13:11:22Z</time></trkpt><trkpt lat="49.753100000" lon="11.938800000"><ele>432</ele><time>2013-09-08T13:11:32Z</time></trkpt><trkpt lat="49.753233333" lon="11.938750000"><ele>434</ele><time>2013-09-08T13:11:42Z</time></trkpt><trkpt lat="49.753350000" lon="11.938716667"><ele>435</ele><time>2013-09-08T13:11:52Z</time></trkpt><trkpt lat="49.753466667" lon="11.938650000"><ele>437</ele><time>2013-09-08T13:12:02Z</time></trkpt><trkpt lat="49.753550000" lon="11.938600000"><ele>438</ele><time>2013-09-08T13:12:12Z</time></trkpt><trkpt lat="49.753650000" lon="11.938500000"><ele>438</ele><time>2013-09-08T13:12:22Z</time></trkpt><trkpt lat="49.753716667" lon="11.938316667"><ele>437</ele><time>2013-09-08T13:12:32Z</time></trkpt><trkpt lat="49.753766667" lon="11.938100000"><ele>434</ele><time>2013-09-08T13:12:42Z</time></trkpt><trkpt lat="49.753816667" lon="11.937916667"><ele>432</ele><time>2013-09-08T13:12:52Z</time></trkpt><trkpt lat="49.753850000" lon="11.937750000"><ele>433</ele><time>2013-09-08T13:13:02Z</time></trkpt><trkpt lat="49.753900000" lon="11.937666667"><ele>435</ele><time>2013-09-08T13:13:12Z</time></trkpt><trkpt lat="49.754050000" lon="11.937500000"><ele>428</ele><time>2013-09-08T13:13:22Z</time></trkpt><trkpt lat="49.754133333" lon="11.937600000"><ele>425</ele><time>2013-09-08T13:13:32Z</time></trkpt><trkpt lat="49.754216667" lon="11.937733333"><ele>422</ele><time>2013-09-08T13:13:42Z</time></trkpt><trkpt lat="49.754233333" lon="11.937966667"><ele>423</ele><time>2013-09-08T13:13:52Z</time></trkpt><trkpt lat="49.754250000" lon="11.938216667"><ele>422</ele><time>2013-09-08T13:14:02Z</time></trkpt><trkpt lat="49.754250000" lon="11.938433333"><ele>426</ele><time>2013-09-08T13:14:12Z</time></trkpt><trkpt lat="49.754200000" lon="11.938750000"><ele>426</ele><time>2013-09-08T13:14:22Z</time></trkpt><trkpt lat="49.754183333" lon="11.938933333"><ele>426</ele><time>2013-09-08T13:14:32Z</time></trkpt><trkpt lat="49.754233333" lon="11.939033333"><ele>426</ele><time>2013-09-08T13:14:42Z</time></trkpt></trkseg></trk></gpx>